Time;durP1;ratioP1;P1;durP2;ratioP2;P2;SDS_P1;SDS_P2;PMS_P1;PMS_P2;Temp;Humidity;BMP_temperature;BMP_pressure;BME280_temperature;BME280_humidity;BME280_pressure;Samples;Min_cycle;Max_cycle;Signal;HPM_P1;HPM_P2
2022/08/13 00:01:44;;;;;;;19.17;18.17;;;;;;;20.72;100.00;101573.88;1981868;72;24147;-73
2022/08/13 00:04:17;;;;;;;19.53;18.53;;;;;;;20.69;100.00;101571.16;1943103;74;24172;-73
2022/08/13 00:07:06;;;;;;;19.70;18.50;;;;;;;20.74;100.00;101571.56;1943282;74;24183;-74
2022/08/13 00:09:38;;;;;;;18.27;17.37;;;;;;;20.63;100.00;101573.90;1982013;72;24158;-74
2022/08/13 00:15:02;;;;;;;16.90;15.97;;;;;;;20.63;100.00;101567.42;1943382;74;24207;-72
2022/08/13 00:17:33;;;;;;;16.33;15.33;;;;;;;20.84;100.00;101560.72;1943486;74;24192;-72
2022/08/13 00:20:05;;;;;;;16.73;15.80;;;;;;;20.89;100.00;101557.72;1977952;72;24682;-72
2022/08/13 00:22:35;;;;;;;15.60;14.70;;;;;;;20.60;100.00;101563.28;1977948;72;24092;-72
2022/08/13 00:25:09;;;;;;;16.40;15.50;;;;;;;20.48;100.00;101558.92;1978056;72;24562;-72
2022/08/13 00:27:47;;;;;;;15.97;15.10;;;;;;;20.46;100.00;101556.99;1977922;72;24625;-73
2022/08/13 00:30:15;;;;;;;15.63;14.80;;;;;;;20.59;100.00;101553.16;1976508;72;24550;-73
2022/08/13 00:32:47;;;;;;;15.47;14.67;;;;;;;20.76;100.00;101547.45;1977891;72;24602;-73
2022/08/13 00:35:18;;;;;;;16.00;15.03;;;;;;;20.68;100.00;101547.48;1977983;72;24147;-73
2022/08/13 00:37:48;;;;;;;16.33;15.23;;;;;;;20.43;100.00;101551.45;1977900;72;24131;-73
2022/08/13 00:40:19;;;;;;;15.20;14.30;;;;;;;20.31;100.00;101554.13;1978038;72;24170;-73
2022/08/13 00:42:50;;;;;;;14.83;14.13;;;;;;;20.36;100.00;101550.31;1977687;72;26813;-73
2022/08/13 00:45:21;;;;;;;15.20;14.30;;;;;;;20.48;100.00;101546.80;1977997;72;24166;-73
2022/08/13 00:50:39;;;;;;;15.97;14.77;;;;;;;20.31;100.00;101547.08;1977951;72;24139;-72
2022/08/13 00:53:17;;;;;;;15.37;14.53;;;;;;;20.52;100.00;101549.19;1977891;72;24119;-72
2022/08/13 00:55:45;;;;;;;16.20;15.30;;;;;;;20.63;100.00;101537.20;1976692;72;24170;-72
2022/08/13 00:58:16;;;;;;;15.77;14.57;;;;;;;20.34;100.00;101551.20;1977283;72;24163;-72
2022/08/13 01:00:51;;;;;;;15.40;14.50;;;;;;;20.14;100.00;101540.01;1977302;72;24123;-72
2022/08/13 01:03:22;;;;;;;15.37;14.47;;;;;;;20.18;100.00;101545.23;1977148;72;24162;-72
2022/08/13 01:05:54;;;;;;;15.53;14.73;;;;;;;20.16;100.00;101541.90;1977270;72;24167;-72
2022/08/13 01:08:24;;;;;;;16.47;15.47;;;;;;;20.10;100.00;101543.83;1977456;72;24178;-72
2022/08/13 01:10:58;;;;;;;17.10;16.20;;;;;;;20.08;100.00;101539.08;1977234;72;24593;-72
2022/08/13 01:13:30;;;;;;;16.63;15.63;;;;;;;20.01;100.00;101545.23;1977294;72;24146;-73
2022/08/13 01:19:00;;;;;;;17.23;16.43;;;;;;;19.89;100.00;101509.25;2058450;69;26034;-74
2022/08/13 01:21:33;;;;;;;18.37;17.30;;;;;;;19.83;100.00;101526.08;1980173;72;24101;-73
2022/08/13 01:24:03;;;;;;;19.20;18.10;;;;;;;19.73;100.00;101532.03;1979908;72;26651;-74
2022/08/13 01:26:34;;;;;;;19.50;18.50;;;;;;;19.43;100.00;101530.16;1979980;72;24172;-74
2022/08/13 01:29:06;;;;;;;19.33;18.30;;;;;;;19.42;100.00;101532.71;1979934;72;24644;-74
2022/08/13 01:31:39;;;;;;;19.43;18.30;;;;;;;19.34;100.00;101528.69;1979957;72;24118;-73
2022/08/13 01:34:10;;;;;;;18.43;17.53;;;;;;;19.41;100.00;101514.97;1979936;72;24225;-74
2022/08/13 01:36:41;;;;;;;18.63;17.43;;;;;;;19.46;100.00;101517.67;1979964;72;24277;-74
2022/08/13 01:39:12;;;;;;;18.73;17.60;;;;;;;19.43;100.00;101518.31;1980032;72;24216;-74
2022/08/13 01:41:43;;;;;;;18.13;16.93;;;;;;;19.42;100.00;101518.05;1979928;72;24148;-74
2022/08/13 01:44:15;;;;;;;17.70;16.70;;;;;;;19.51;100.00;101513.88;1980025;72;24144;-73
2022/08/13 01:52:23;;;;;;;19.33;18.23;;;;;;;19.45;100.00;101510.95;1909518;75;24682;-74
2022/08/13 01:54:53;;;;;;;19.20;18.03;;;;;;;19.40;100.00;101511.06;1892750;76;24650;-72
2022/08/13 01:57:23;;;;;;;18.93;17.83;;;;;;;19.39;100.00;101509.40;1944733;74;26708;-72
2022/08/13 01:59:54;;;;;;;20.57;19.43;;;;;;;19.38;100.00;101510.58;1944911;73;24242;-71
2022/08/13 02:02:27;;;;;;;20.63;19.53;;;;;;;19.25;100.00;101507.32;1944933;73;24173;-71
2022/08/13 02:04:57;;;;;;;21.37;20.07;;;;;;;19.34;100.00;101502.54;1944916;74;24150;-72
2022/08/13 02:07:27;;;;;;;22.50;21.10;;;;;;;19.46;100.00;101510.63;1944931;73;24102;-72
2022/08/13 02:09:58;;;;;;;23.30;21.87;;;;;;;19.29;100.00;101506.91;1944923;74;24121;-71
2022/08/13 02:12:29;;;;;;;24.63;23.30;;;;;;;19.18;100.00;101507.78;1945014;73;26316;-72
2022/08/13 02:15:04;;;;;;;24.50;23.00;;;;;;;19.07;100.00;101511.50;1944981;73;24169;-71
2022/08/13 02:17:33;;;;;;;23.33;21.90;;;;;;;19.04;100.00;101509.88;1944304;73;24213;-72
2022/08/13 02:20:05;;;;;;;24.53;23.33;;;;;;;19.20;100.00;101511.12;1945036;74;24157;-71
2022/08/13 02:22:37;;;;;;;24.07;22.67;;;;;;;19.22;100.00;101513.02;1944926;74;24624;-72
2022/08/13 02:25:12;;;;;;;24.47;23.17;;;;;;;19.24;100.00;101514.94;1945051;73;24157;-72
2022/08/13 02:27:43;;;;;;;26.17;24.60;;;;;;;19.24;100.00;101512.13;1945020;74;24157;-72
2022/08/13 02:30:16;;;;;;;25.97;24.57;;;;;;;19.24;100.00;101507.06;1944360;73;24243;-71
2022/08/13 02:32:47;;;;;;;27.23;25.73;;;;;;;19.13;100.00;101505.69;1944270;74;24125;-72
2022/08/13 02:35:18;;;;;;;29.67;28.07;;;;;;;19.03;100.00;101510.48;1944197;74;24647;-72
2022/08/13 02:37:48;;;;;;;32.83;30.90;;;;;;;18.74;100.00;101510.17;1944177;73;24180;-73
2022/08/13 02:43:07;;;;;;;32.17;30.27;;;;;;;18.62;100.00;101509.96;1944365;73;27477;-73
2022/08/13 02:45:38;;;;;;;34.63;32.40;;;;;;;18.69;100.00;101508.94;1944371;74;24184;-73
2022/08/13 02:48:08;;;;;;;34.93;32.83;;;;;;;18.63;100.00;101510.22;1944273;73;24192;-73
2022/08/13 02:50:45;;;;;;;35.60;33.63;;;;;;;18.56;100.00;101509.86;1944198;74;24122;-73
2022/08/13 02:53:13;;;;;;;36.50;34.20;;;;;;;18.53;100.00;101509.91;1943330;74;24165;-73
2022/08/13 02:55:43;;;;;;;36.73;34.73;;;;;;;18.54;100.00;101507.94;1944263;73;24251;-73
2022/08/13 02:58:14;;;;;;;38.40;36.10;;;;;;;18.48;100.00;101509.21;1944219;74;26771;-73
2022/08/13 03:00:48;;;;;;;37.30;35.10;;;;;;;18.50;100.00;101511.94;1944299;74;24165;-73
2022/08/13 03:03:20;;;;;;;37.73;35.43;;;;;;;18.57;100.00;101510.92;1944220;74;26701;-72
2022/08/13 03:08:51;;;;;;;36.77;34.47;;;;;;;18.58;100.00;101497.69;2050152;69;26091;-73
2022/08/13 03:11:21;;;;;;;37.20;35.07;;;;;;;18.58;100.00;101507.54;1988414;70;24174;-73
2022/08/13 03:13:55;;;;;;;38.30;36.20;;;;;;;18.66;100.00;101506.75;2010437;69;24495;-74
2022/08/13 03:16:27;;;;;;;37.90;35.70;;;;;;;18.54;100.00;101505.13;1945801;73;24217;-73
2022/08/13 03:18:59;;;;;;;39.90;37.50;;;;;;;18.55;100.00;101506.22;2002314;69;24222;-74
2022/08/13 03:21:32;;;;;;;39.93;37.53;;;;;;;18.44;100.00;101506.19;1994504;69;24143;-73
2022/08/13 03:24:04;;;;;;;40.70;38.27;;;;;;;18.41;100.00;101506.84;2006269;70;24206;-73
2022/08/13 03:26:36;;;;;;;42.67;40.17;;;;;;;18.41;100.00;101498.97;2006035;69;24665;-74
2022/08/13 03:29:06;;;;;;;43.50;40.90;;;;;;;18.39;100.00;101498.48;1995622;69;24242;-73
2022/08/13 03:31:36;;;;;;;44.30;41.80;;;;;;;18.37;100.00;101500.20;2010404;71;24151;-73
2022/08/13 03:34:07;;;;;;;44.57;42.07;;;;;;;18.45;100.00;101499.98;2006140;70;24215;-73
2022/08/13 03:36:38;;;;;;;44.50;41.80;;;;;;;18.38;100.00;101495.41;1991700;69;24705;-74
2022/08/13 03:39:08;;;;;;;45.07;42.33;;;;;;;18.37;100.00;101489.52;1987927;72;26678;-74
2022/08/13 03:41:38;;;;;;;44.03;41.33;;;;;;;18.36;100.00;101495.72;2007964;70;24279;-74
2022/08/13 03:44:08;;;;;;;44.70;41.90;;;;;;;18.33;100.00;101494.13;2006622;69;24198;-74
2022/08/13 03:46:39;;;;;;;44.73;41.90;;;;;;;18.37;100.00;101493.16;1994694;69;24738;-74
2022/08/13 03:49:10;;;;;;;44.73;42.13;;;;;;;18.36;100.00;101493.48;1983538;71;24145;-74
2022/08/13 03:51:40;;;;;;;45.37;42.83;;;;;;;18.36;100.00;101490.66;1970545;71;24156;-74
2022/08/13 03:54:12;;;;;;;46.33;43.53;;;;;;;18.34;100.00;101495.80;1970752;71;26318;-74
2022/08/13 03:56:45;;;;;;;47.10;44.43;;;;;;;18.28;100.00;101503.53;1966245;71;24216;-74
2022/08/13 03:59:14;;;;;;;48.30;45.40;;;;;;;18.06;100.00;101477.66;1956263;71;26728;-74
2022/08/13 04:04:46;;;;;;;49.63;46.70;;;;;;;18.28;100.00;101499.31;2047789;69;26045;-74
2022/08/13 04:07:16;;;;;;;51.60;48.70;;;;;;;18.25;100.00;101497.72;2011207;70;24134;-74
2022/08/13 04:09:47;;;;;;;53.80;50.70;;;;;;;18.23;100.00;101498.64;2010837;70;24186;-74
2022/08/13 04:12:17;;;;;;;53.07;50.17;;;;;;;18.12;100.00;101497.48;1936729;73;26834;-73
2022/08/13 04:14:48;;;;;;;54.37;51.37;;;;;;;18.16;100.00;101499.91;1938389;73;24214;-74
2022/08/13 04:17:18;;;;;;;57.57;54.37;;;;;;;18.08;100.00;101495.63;1931268;73;24200;-74
2022/08/13 04:19:48;;;;;;;58.30;54.90;;;;;;;17.96;100.00;101500.43;1970860;72;24294;-74
2022/08/13 04:22:20;;;;;;;58.40;55.03;;;;;;;17.99;100.00;101498.95;1937470;73;26772;-74
2022/08/13 04:24:50;;;;;;;61.23;57.73;;;;;;;17.95;100.00;101501.57;1964393;73;26400;-74
2022/08/13 04:27:21;;;;;;;63.00;59.43;;;;;;;17.85;100.00;101494.78;1936248;74;24654;-74
2022/08/13 04:29:53;;;;;;;64.43;60.80;;;;;;;17.86;100.00;101495.05;1930774;73;24724;-74
2022/08/13 04:32:23;;;;;;;61.87;58.20;;;;;;;17.88;100.00;101490.52;1935652;73;24157;-74
2022/08/13 04:34:54;;;;;;;61.90;58.53;;;;;;;17.87;100.00;101487.45;1933204;73;24211;-74
2022/08/13 04:37:24;;;;;;;61.13;57.83;;;;;;;17.94;100.00;101483.61;1937992;73;24513;-74
2022/08/13 04:39:55;;;;;;;60.63;57.07;;;;;;;18.04;100.00;101487.58;1966592;72;26267;-74
2022/08/13 04:42:25;;;;;;;59.90;56.50;;;;;;;18.14;100.00;101480.30;1934030;73;24860;-74
2022/08/13 04:44:56;;;;;;;60.83;57.43;;;;;;;18.20;100.00;101481.81;1965418;72;24279;-73
2022/08/13 04:47:26;;;;;;;61.80;58.40;;;;;;;18.07;100.00;101476.52;1927537;73;24146;-74
2022/08/13 04:49:57;;;;;;;62.70;59.30;;;;;;;17.93;100.00;101487.56;1972766;72;24190;-73
2022/08/13 04:52:27;;;;;;;63.23;59.70;;;;;;;17.95;100.00;101474.03;1978485;72;26738;-74
2022/08/13 04:55:01;;;;;;;63.23;59.57;;;;;;;17.95;100.00;101477.67;1974695;72;24202;-74
2022/08/13 04:57:29;;;;;;;63.27;59.73;;;;;;;17.87;100.00;101492.50;1973936;72;24207;-74
2022/08/13 05:00:02;;;;;;;66.27;62.57;;;;;;;17.83;100.00;101488.66;1981310;72;24282;-74
2022/08/13 05:02:31;;;;;;;66.10;62.30;;;;;;;17.93;100.00;101493.18;1978408;72;24275;-74
2022/08/13 05:05:02;;;;;;;63.37;59.60;;;;;;;17.84;100.00;101489.50;1995742;72;24258;-74
2022/08/13 05:07:34;;;;;;;65.73;61.90;;;;;;;17.84;100.00;101490.30;1995775;72;24165;-74
2022/08/13 05:10:05;;;;;;;64.80;61.00;;;;;;;17.89;100.00;101496.38;1995721;72;26163;-74
2022/08/13 05:12:39;;;;;;;65.83;61.97;;;;;;;17.89;100.00;101496.38;1995894;72;24169;-74
2022/08/13 05:15:12;;;;;;;65.17;61.33;;;;;;;17.89;100.00;101488.78;1995238;72;26962;-74
2022/08/13 05:17:43;;;;;;;63.90;60.20;;;;;;;17.90;100.00;101488.20;1995068;72;24223;-74
2022/08/13 05:20:15;;;;;;;64.87;61.17;;;;;;;17.98;100.00;101491.09;1994962;72;26594;-74
2022/08/13 05:22:45;;;;;;;63.90;60.20;;;;;;;17.96;100.00;101492.00;1994944;72;24149;-74
2022/08/13 05:25:15;;;;;;;63.93;60.23;;;;;;;18.02;100.00;101491.27;1995114;72;26622;-73
2022/08/13 05:27:45;;;;;;;65.73;61.73;;;;;;;18.06;100.00;101488.08;1995088;72;24247;-73
2022/08/13 05:30:16;;;;;;;63.93;60.23;;;;;;;18.05;100.00;101482.22;1994941;72;26757;-74
2022/08/13 05:32:46;;;;;;;63.07;59.37;;;;;;;18.17;100.00;101482.46;1994963;72;24627;-74
2022/08/13 05:35:16;;;;;;;63.07;59.47;;;;;;;18.26;100.00;101481.11;1995122;72;24155;-74
2022/08/13 05:37:46;;;;;;;65.40;61.43;;;;;;;18.44;100.00;101475.24;1995094;72;24157;-74
2022/08/13 05:40:17;;;;;;;65.07;61.07;;;;;;;18.30;100.00;101476.50;1994980;72;26261;-73
2022/08/13 05:42:48;;;;;;;63.27;59.37;;;;;;;18.36;100.00;101473.22;1995003;72;26693;-73
2022/08/13 05:45:19;;;;;;;63.77;60.07;;;;;;;18.45;100.00;101479.72;1994987;72;24243;-74
2022/08/13 05:47:50;;;;;;;66.83;62.73;;;;;;;18.49;100.00;101477.92;1995104;72;24189;-74
2022/08/13 05:50:21;;;;;;;66.10;62.17;;;;;;;18.71;100.00;101481.28;1995054;72;24259;-73
2022/08/13 05:52:51;;;;;;;63.33;59.70;;;;;;;18.71;100.00;101477.06;1994964;72;24119;-74
2022/08/13 05:55:21;;;;;;;64.00;60.27;;;;;;;18.74;100.00;101477.81;1995053;72;24207;-74
2022/08/13 05:57:52;;;;;;;64.60;60.70;;;;;;;18.75;100.00;101480.05;1995110;72;24265;-74
2022/08/13 06:03:28;;;;;;;65.33;61.40;;;;;;;18.93;100.00;101471.36;1995116;72;27001;-73
2022/08/13 06:06:01;;;;;;;63.77;59.97;;;;;;;19.12;100.00;101484.34;1995149;72;24113;-73
2022/08/13 06:08:35;;;;;;;64.83;60.80;;;;;;;19.06;100.00;101480.26;1994946;72;26745;-73
2022/08/13 06:11:08;;;;;;;64.97;61.17;;;;;;;18.98;100.00;101472.62;1994932;72;24611;-73
2022/08/13 06:13:39;;;;;;;65.70;61.77;;;;;;;19.08;100.00;101472.91;1995001;72;24239;-73
2022/08/13 06:16:12;;;;;;;65.83;61.57;;;;;;;19.21;100.00;101475.33;1995153;72;24188;-73
2022/08/13 06:18:44;;;;;;;65.70;61.93;;;;;;;19.27;100.00;101476.81;1995084;72;25335;-70
2022/08/13 06:21:18;;;;;;;65.13;61.07;;;;;;;19.39;100.00;101479.23;1995129;72;26273;-72
2022/08/13 06:23:49;;;;;;;63.77;60.00;;;;;;;19.44;100.00;101476.30;1995124;72;24188;-72
2022/08/13 06:26:21;;;;;;;65.73;61.77;;;;;;;19.47;100.00;101481.27;1995048;72;24165;-72
2022/08/13 06:28:52;;;;;;;65.90;61.83;;;;;;;19.59;100.00;101472.18;1995083;72;24129;-72
2022/08/13 06:31:28;;;;;;;67.90;63.50;;;;;;;19.64;100.00;101467.77;1995087;72;26937;-72
2022/08/13 06:33:58;;;;;;;63.40;59.70;;;;;;;19.60;100.00;101464.53;1995303;72;24217;-72
2022/08/13 06:36:29;;;;;;;66.13;62.20;;;;;;;19.83;100.00;101468.27;1995078;72;24118;-72
2022/08/13 06:39:03;;;;;;;65.73;61.70;;;;;;;19.78;100.00;101463.38;1995040;72;26441;-72
2022/08/13 06:41:34;;;;;;;65.83;61.77;;;;;;;19.85;100.00;101466.55;1995049;72;26756;-72
2022/08/13 06:44:05;;;;;;;66.43;62.10;;;;;;;19.95;100.00;101461.95;1994971;72;26668;-73
2022/08/13 06:46:35;;;;;;;64.77;61.13;;;;;;;19.89;100.00;101464.13;1994988;72;24149;-73
2022/08/13 06:49:06;;;;;;;65.20;61.10;;;;;;;19.94;100.00;101465.34;1995074;72;26689;-73
2022/08/13 06:51:37;;;;;;;68.00;64.10;;;;;;;20.09;100.00;101459.78;1994992;72;24219;-73
2022/08/13 06:54:09;;;;;;;62.93;59.30;;;;;;;20.22;100.00;101457.35;1994998;72;24733;-73
2022/08/13 06:56:40;;;;;;;63.77;59.97;;;;;;;20.30;100.00;101453.71;1994967;72;24166;-73
2022/08/13 06:59:13;;;;;;;62.67;58.77;;;;;;;20.27;100.00;101452.95;1995164;72;24242;-73
2022/08/13 07:01:43;;;;;;;64.93;61.23;;;;;;;20.40;100.00;101456.18;1995119;72;24169;-73
2022/08/13 07:04:18;;;;;;;64.60;60.57;;;;;;;20.51;100.00;101446.75;1994749;70;24324;-73
2022/08/13 07:06:49;;;;;;;64.37;60.37;;;;;;;20.39;100.00;101449.45;1995213;72;24649;-73
2022/08/13 07:09:20;;;;;;;64.10;60.40;;;;;;;20.51;100.00;101450.98;1995072;72;24154;-73
2022/08/13 07:11:51;;;;;;;64.77;60.73;;;;;;;20.75;100.00;101451.81;1995077;72;24218;-73
2022/08/13 07:14:22;;;;;;;63.60;59.77;;;;;;;20.81;100.00;101443.37;1995023;72;24250;-73
2022/08/13 07:16:52;;;;;;;63.13;59.30;;;;;;;20.82;100.00;101443.63;1994990;72;24230;-73
2022/08/13 07:19:23;;;;;;;62.23;58.57;;;;;;;20.76;100.00;101448.62;1994921;72;24154;-74
2022/08/13 07:21:54;;;;;;;62.90;59.30;;;;;;;20.92;100.00;101448.90;1995079;72;24110;-73
2022/08/13 07:24:25;;;;;;;62.33;58.73;;;;;;;21.08;100.00;101439.25;1994859;72;24177;-73
2022/08/13 07:26:59;;;;;;;59.03;55.43;;;;;;;21.08;100.00;101440.66;1995123;72;24203;-73
2022/08/13 07:29:28;;;;;;;57.17;53.77;;;;;;;21.20;100.00;101440.77;1995110;72;24122;-74
2022/08/13 07:32:02;;;;;;;60.07;56.67;;;;;;;21.27;100.00;101436.23;1995034;72;24616;-73
2022/08/13 07:34:34;;;;;;;60.43;56.83;;;;;;;21.30;100.00;101446.03;1995049;72;24916;-73
2022/08/13 07:37:04;;;;;;;57.50;54.03;;;;;;;21.28;100.00;101448.36;1994931;72;24115;-73
2022/08/13 07:39:35;;;;;;;58.33;54.57;;;;;;;21.41;100.00;101450.09;1995051;72;24158;-73
2022/08/13 07:45:05;;;;;;;59.00;55.70;;;;;;;21.71;100.00;101448.86;2035490;69;25922;-72
2022/08/13 07:50:50;;;;;;;55.50;52.17;;;;;;;22.15;100.00;101440.23;2005833;71;31345;-73
2022/08/13 07:56:21;;;;;;;52.27;49.17;;;;;;;22.56;100.00;101436.41;2058263;69;25934;-73
2022/08/13 07:58:55;;;;;;;52.13;48.67;;;;;;;22.58;100.00;101442.56;1961014;71;24230;-73
2022/08/13 08:01:27;;;;;;;51.08;48.10;;;;;;;22.86;100.00;101442.72;1967209;73;24221;-74
2022/08/13 08:03:59;;;;;;;50.53;47.43;;;;;;;22.91;100.00;101440.23;2010523;71;24817;-73
2022/08/13 08:06:30;;;;;;;48.28;45.67;;;;;;;23.02;100.00;101445.66;2010453;71;24166;-73
2022/08/13 08:09:01;;;;;;;47.50;44.65;;;;;;;23.20;100.00;101452.73;1929475;73;24236;-73
2022/08/13 08:14:27;;;;;;;46.40;43.23;;;;;;;23.66;100.00;101451.36;1983348;70;24669;-73
2022/08/13 08:16:54;;;;;;;42.62;40.23;;;;;;;23.83;100.00;101448.84;1991016;69;24337;-73
2022/08/13 08:19:25;;;;;;;42.58;39.78;;;;;;;24.00;100.00;101445.70;1951526;71;24114;-73
2022/08/13 08:21:58;;;;;;;41.20;38.73;;;;;;;24.13;100.00;101443.63;2003158;69;24143;-73
2022/08/13 08:24:32;;;;;;;38.77;36.30;;;;;;;24.33;100.00;101449.09;1993715;71;24143;-73
2022/08/13 08:27:04;;;;;;;39.03;36.53;;;;;;;24.58;100.00;101446.91;2001982;70;24692;-72
2022/08/13 08:29:35;;;;;;;38.50;36.33;;;;;;;24.63;100.00;101444.40;2010388;69;24267;-72
2022/08/13 08:32:08;;;;;;;37.17;34.75;;;;;;;24.73;100.00;101438.97;2010427;70;24280;-72
2022/08/13 08:34:39;;;;;;;35.15;32.95;;;;;;;24.94;100.00;101445.84;1927360;73;24211;-72
2022/08/13 08:42:35;;;;;;;33.95;31.87;;;;;;;25.04;100.00;101442.42;2002792;69;24698;-72
2022/08/13 08:42:38;;;;;;;34.05;32.05;;;;;;;25.11;100.00;101436.92;1990268;69;24199;-72
2022/08/13 08:45:14;;;;;;;33.05;30.85;;;;;;;25.17;100.00;101443.95;1924592;72;24143;-72
2022/08/13 08:47:43;;;;;;;32.93;30.92;;;;;;;25.16;100.00;101447.20;1987323;69;24739;-73
2022/08/13 08:50:15;;;;;;;28.77;26.95;;;;;;;25.25;100.00;101446.37;1923710;72;24631;-73
2022/08/13 08:55:36;;;;;;;28.02;26.10;;;;;;;25.30;100.00;101445.48;1932655;74;24217;-73
2022/08/13 08:58:08;;;;;;;25.77;24.40;;;;;;;25.44;100.00;101448.44;1932900;74;24169;-73
2022/08/13 09:00:39;;;;;;;25.88;24.18;;;;;;;25.53;100.00;101447.63;1917248;75;24147;-73
2022/08/13 09:03:10;;;;;;;24.35;22.82;;;;;;;25.60;100.00;101447.81;1917253;75;24141;-73
2022/08/13 09:08:46;;;;;;;23.18;21.73;;;;;;;25.77;100.00;101441.68;2058624;69;26474;-71
2022/08/13 09:11:18;;;;;;;23.25;21.62;;;;;;;25.69;100.00;101443.56;2025577;70;24199;-72
2022/08/13 09:13:49;;;;;;;22.15;20.60;;;;;;;25.89;100.00;101444.38;2025911;71;24100;-75
2022/08/13 09:16:21;;;;;;;21.05;19.85;;;;;;;25.56;100.00;101449.75;1945002;73;24169;-74
2022/08/13 09:18:52;;;;;;;22.10;20.37;;;;;;;25.63;100.00;101445.67;1985353;72;24088;-74
2022/08/13 09:21:22;;;;;;;21.95;20.62;;;;;;;25.67;100.00;101440.87;1981810;72;24193;-74
2022/08/13 09:23:53;;;;;;;22.40;21.07;;;;;;;25.66;100.00;101432.93;1981766;72;24109;-74
2022/08/13 09:26:24;;;;;;;22.10;20.95;;;;;;;25.90;100.00;101438.91;1981738;72;24575;-73
2022/08/13 09:28:57;;;;;;;20.50;19.30;;;;;;;25.76;100.00;101430.89;1981628;72;24393;-74
2022/08/13 09:31:29;;;;;;;18.77;17.87;;;;;;;26.11;100.00;101431.39;1981640;72;24105;-73
2022/08/13 09:34:00;;;;;;;20.15;18.87;;;;;;;26.32;100.00;101436.11;1981658;72;24175;-73
2022/08/13 09:36:32;;;;;;;18.37;17.37;;;;;;;26.24;100.00;101431.48;1981699;72;24102;-73
2022/08/13 09:39:02;;;;;;;16.95;16.12;;;;;;;25.98;100.00;101426.47;1981641;72;24086;-74
2022/08/13 09:41:36;;;;;;;15.15;14.25;;;;;;;25.92;100.00;101425.73;1981777;72;24183;-74
2022/08/13 09:44:07;;;;;;;15.78;14.38;;;;;;;26.22;100.00;101418.23;1981920;72;24666;-74
2022/08/13 09:46:37;;;;;;;15.25;14.15;;;;;;;26.37;100.00;101424.41;1981627;72;24120;-74
2022/08/13 09:49:08;;;;;;;14.45;13.70;;;;;;;26.13;100.00;101418.45;1956279;72;24200;-74
2022/08/13 09:51:38;;;;;;;15.15;14.00;;;;;;;26.20;100.00;101420.03;1911181;75;24128;-74
2022/08/13 09:54:10;;;;;;;14.20;13.20;;;;;;;26.26;100.00;101419.13;1894588;76;24210;-72
2022/08/13 09:56:41;;;;;;;13.70;12.85;;;;;;;26.53;100.00;101414.30;1946587;74;24125;-71
2022/08/13 09:59:13;;;;;;;14.47;13.48;;;;;;;26.47;100.00;101410.97;1946779;73;24121;-73
2022/08/13 10:01:44;;;;;;;12.90;12.10;;;;;;;26.39;100.00;101415.50;1946764;73;24187;-73
2022/08/13 10:04:17;;;;;;;13.60;12.88;;;;;;;26.43;100.00;101403.56;1946645;73;25241;-73
2022/08/13 10:06:47;;;;;;;12.73;12.03;;;;;;;26.31;100.00;101408.84;1946780;73;24114;-73
2022/08/13 10:09:18;;;;;;;13.65;12.45;;;;;;;26.69;100.00;101396.49;1946634;73;24087;-73
2022/08/13 10:11:48;;;;;;;13.25;12.45;;;;;;;26.78;100.00;101402.75;1946659;74;24160;-73
2022/08/13 10:14:18;;;;;;;13.32;12.43;;;;;;;26.54;100.00;101391.73;1946696;73;25233;-74
2022/08/13 10:16:48;;;;;;;13.18;12.28;;;;;;;26.86;100.00;101398.84;1946643;73;24556;-73
2022/08/13 10:19:20;;;;;;;13.13;12.23;;;;;;;26.70;100.00;101398.94;1946108;74;24619;-73
2022/08/13 10:21:51;;;;;;;12.73;11.93;;;;;;;26.42;100.00;101394.19;1946005;74;24223;-73
2022/08/13 10:24:21;;;;;;;12.43;11.73;;;;;;;26.53;100.00;101385.81;1945952;74;25173;-73
2022/08/13 10:26:51;;;;;;;12.63;12.03;;;;;;;26.90;100.00;101385.46;1945943;74;25158;-73
2022/08/13 10:29:21;;;;;;;12.63;11.80;;;;;;;26.65;100.00;101375.66;1946069;73;25153;-73
2022/08/13 10:31:52;;;;;;;12.63;11.93;;;;;;;26.74;100.00;101373.37;1945962;74;24659;-74
2022/08/13 10:37:21;;;;;;;12.98;12.18;;;;;;;26.95;100.00;101370.06;2059991;69;25962;-73
2022/08/13 10:39:51;;;;;;;12.37;11.73;;;;;;;27.07;100.00;101377.78;1970266;72;24166;-73
2022/08/13 10:42:22;;;;;;;13.15;12.25;;;;;;;27.05;100.00;101371.63;1968261;73;26661;-73
2022/08/13 10:44:53;;;;;;;13.10;12.30;;;;;;;26.87;100.00;101371.95;2010418;70;25569;-72
2022/08/13 10:47:24;;;;;;;12.47;11.70;;;;;;;27.10;100.00;101371.30;2011127;69;25303;-73
2022/08/13 10:49:55;;;;;;;13.53;12.68;;;;;;;27.26;100.00;101369.69;2010194;70;24649;-73
2022/08/13 10:52:26;;;;;;;13.05;12.35;;;;;;;26.96;100.00;101371.68;1931948;74;25149;-73
2022/08/13 10:54:57;;;;;;;13.22;12.35;;;;;;;27.07;100.00;101371.25;1931939;74;25648;-73
2022/08/13 10:57:27;;;;;;;13.58;12.55;;;;;;;26.96;100.00;101368.83;1934238;73;24164;-73
2022/08/13 10:59:57;;;;;;;12.82;12.13;;;;;;;26.86;100.00;101368.91;1971381;72;25685;-73
2022/08/13 11:02:27;;;;;;;13.15;12.45;;;;;;;26.84;100.00;101374.12;1932024;73;24710;-73
2022/08/13 11:05:00;;;;;;;13.00;12.30;;;;;;;27.02;100.00;101365.28;2010091;71;24544;-73
2022/08/13 11:07:31;;;;;;;13.32;12.63;;;;;;;27.12;100.00;101365.22;1929145;73;24153;-73
2022/08/13 11:12:59;;;;;;;13.65;12.70;;;;;;;27.04;100.00;101360.00;2022772;71;28498;-73
2022/08/13 11:18:44;;;;;;;12.93;12.13;;;;;;;27.42;100.00;101351.79;2015289;71;31407;-72
2022/08/13 11:24:13;;;;;;;12.50;11.57;;;;;;;27.27;100.00;101348.51;2060098;69;25716;-73
2022/08/13 11:26:43;;;;;;;12.78;12.10;;;;;;;27.65;100.00;101354.53;1981882;72;25205;-73
2022/08/13 11:29:13;;;;;;;12.28;11.63;;;;;;;27.22;100.00;101348.84;1981752;72;25153;-73
2022/08/13 11:31:43;;;;;;;12.13;11.43;;;;;;;26.83;100.00;101353.14;1981655;72;25124;-73
2022/08/13 11:34:14;;;;;;;12.45;11.65;;;;;;;26.84;100.00;101339.09;1981789;72;24194;-73
2022/08/13 11:36:44;;;;;;;13.08;12.18;;;;;;;27.09;100.00;101343.98;1981735;72;25583;-73
2022/08/13 11:39:14;;;;;;;12.55;11.90;;;;;;;26.97;100.00;101347.06;1981652;72;25134;-73
2022/08/13 11:41:45;;;;;;;12.82;12.03;;;;;;;26.90;100.00;101346.97;1981618;72;24109;-73
2022/08/13 11:44:16;;;;;;;12.88;12.23;;;;;;;26.60;100.00;101347.48;1981654;72;24101;-73
2022/08/13 11:46:46;;;;;;;13.15;12.33;;;;;;;26.51;100.00;101338.37;1981760;72;24680;-73
2022/08/13 11:49:16;;;;;;;13.78;12.90;;;;;;;26.62;100.00;101336.50;1953969;72;24207;-73
2022/08/13 11:51:47;;;;;;;13.75;12.93;;;;;;;26.94;100.00;101328.48;1911155;75;24123;-73
2022/08/13 11:54:18;;;;;;;14.35;13.55;;;;;;;26.66;100.00;101326.80;1894413;76;24136;-73
2022/08/13 11:56:48;;;;;;;13.43;12.50;;;;;;;26.84;100.00;101327.08;1946733;74;25218;-73
2022/08/13 11:59:18;;;;;;;13.32;12.53;;;;;;;27.20;100.00;101327.03;1946664;73;24105;-73
2022/08/13 12:01:50;;;;;;;13.62;12.58;;;;;;;27.06;100.00;101321.13;1946623;73;25202;-74
2022/08/13 12:04:20;;;;;;;13.05;12.18;;;;;;;27.36;100.00;101312.55;1946723;73;24183;-73
2022/08/13 12:06:50;;;;;;;13.53;12.82;;;;;;;27.45;100.00;101308.80;1946672;73;24175;-73
2022/08/13 12:09:21;;;;;;;13.20;12.20;;;;;;;26.92;100.00;101308.91;1946664;73;24111;-73
2022/08/13 12:11:52;;;;;;;12.58;11.88;;;;;;;27.32;100.00;101312.52;1946628;74;25236;-73
2022/08/13 12:14:22;;;;;;;12.82;12.10;;;;;;;27.36;100.00;101308.27;1946626;74;25157;-74
2022/08/13 12:16:52;;;;;;;13.43;12.50;;;;;;;27.91;100.00;101310.17;1946598;73;26881;-73
2022/08/13 12:19:22;;;;;;;12.63;11.83;;;;;;;27.17;100.00;101310.67;1946647;73;25133;-73